sensor_id;sensor_type;location;lat;lon;timestamp;P1;durP1;ratioP1;P2;durP2;ratioP2
19402;SDS011;9837;48.888;8.998;2023-03-01T00:00:26;18.60;;;10.53;;
19402;SDS011;9837;48.888;8.998;2023-03-01T00:02:52;16.97;;;10.37;;
19402;SDS011;9837;48.888;8.998;2023-03-01T00:05:17;21.83;;;11.63;;
19402;SDS011;9837;48.888;8.998;2023-03-01T00:07:43;22.50;;;12.27;;
19402;SDS011;9837;48.888;8.998;2023-03-01T00:10:08;25.87;;;12.67;;
19402;SDS011;9837;48.888;8.998;2023-03-01T00:12:35;23.50;;;13.07;;
19402;SDS011;9837;48.888;8.998;2023-03-01T00:15:01;23.53;;;12.53;;
19402;SDS011;9837;48.888;8.998;2023-03-01T00:17:27;21.30;;;11.80;;
19402;SDS011;9837;48.888;8.998;2023-03-01T00:19:53;18.70;;;12.53;;
19402;SDS011;9837;48.888;8.998;2023-03-01T00:22:19;22.40;;;12.23;;
19402;SDS011;9837;48.888;8.998;2023-03-01T00:24:45;23.20;;;11.43;;
19402;SDS011;9837;48.888;8.998;2023-03-01T00:27:10;21.90;;;11.80;;
19402;SDS011;9837;48.888;8.998;2023-03-01T00:29:36;20.10;;;12.40;;
19402;SDS011;9837;48.888;8.998;2023-03-01T00:32:01;19.43;;;11.47;;
19402;SDS011;9837;48.888;8.998;2023-03-01T00:34:26;16.30;;;9.73;;
19402;SDS011;9837;48.888;8.998;2023-03-01T00:36:52;22.53;;;11.07;;
19402;SDS011;9837;48.888;8.998;2023-03-01T00:39:17;17.60;;;10.20;;
19402;SDS011;9837;48.888;8.998;2023-03-01T00:41:43;23.57;;;13.00;;
19402;SDS011;9837;48.888;8.998;2023-03-01T00:44:09;19.03;;;12.13;;
19402;SDS011;9837;48.888;8.998;2023-03-01T00:46:35;23.50;;;12.10;;
19402;SDS011;9837;48.888;8.998;2023-03-01T00:49:01;17.27;;;10.97;;
19402;SDS011;9837;48.888;8.998;2023-03-01T00:51:27;17.87;;;10.57;;
19402;SDS011;9837;48.888;8.998;2023-03-01T00:53:54;20.67;;;10.60;;
19402;SDS011;9837;48.888;8.998;2023-03-01T00:56:21;16.93;;;11.00;;
19402;SDS011;9837;48.888;8.998;2023-03-01T00:58:47;26.90;;;12.47;;
19402;SDS011;9837;48.888;8.998;2023-03-01T01:01:14;22.67;;;12.40;;
19402;SDS011;9837;48.888;8.998;2023-03-01T01:04:27;27.17;;;15.93;;
19402;SDS011;9837;48.888;8.998;2023-03-01T01:06:31;23.50;;;14.23;;
19402;SDS011;9837;48.888;8.998;2023-03-01T01:09:01;22.30;;;13.17;;
19402;SDS011;9837;48.888;8.998;2023-03-01T01:11:28;23.33;;;13.03;;
19402;SDS011;9837;48.888;8.998;2023-03-01T01:13:54;22.80;;;12.73;;
19402;SDS011;9837;48.888;8.998;2023-03-01T01:16:21;21.00;;;12.20;;
19402;SDS011;9837;48.888;8.998;2023-03-01T01:18:48;20.13;;;13.47;;
19402;SDS011;9837;48.888;8.998;2023-03-01T01:21:15;22.40;;;12.90;;
19402;SDS011;9837;48.888;8.998;2023-03-01T01:23:42;20.93;;;13.23;;
19402;SDS011;9837;48.888;8.998;2023-03-01T01:26:10;20.97;;;12.77;;
19402;SDS011;9837;48.888;8.998;2023-03-01T01:28:37;29.50;;;14.60;;
19402;SDS011;9837;48.888;8.998;2023-03-01T01:31:04;18.70;;;13.43;;
19402;SDS011;9837;48.888;8.998;2023-03-01T01:33:30;21.43;;;15.80;;
19402;SDS011;9837;48.888;8.998;2023-03-01T01:35:56;26.07;;;15.57;;
19402;SDS011;9837;48.888;8.998;2023-03-01T01:38:22;17.97;;;13.10;;
19402;SDS011;9837;48.888;8.998;2023-03-01T01:40:48;21.77;;;12.13;;
19402;SDS011;9837;48.888;8.998;2023-03-01T01:43:17;18.40;;;12.23;;
19402;SDS011;9837;48.888;8.998;2023-03-01T01:45:45;17.30;;;11.27;;
19402;SDS011;9837;48.888;8.998;2023-03-01T01:48:12;24.97;;;11.90;;
19402;SDS011;9837;48.888;8.998;2023-03-01T01:50:41;20.93;;;12.07;;
19402;SDS011;9837;48.888;8.998;2023-03-01T01:53:10;17.40;;;11.13;;
19402;SDS011;9837;48.888;8.998;2023-03-01T01:55:42;22.40;;;11.90;;
19402;SDS011;9837;48.888;8.998;2023-03-01T01:58:11;21.57;;;11.30;;
19402;SDS011;9837;48.888;8.998;2023-03-01T02:00:40;21.37;;;12.93;;
19402;SDS011;9837;48.888;8.998;2023-03-01T02:03:08;22.70;;;13.50;;
19402;SDS011;9837;48.888;8.998;2023-03-01T02:05:44;20.20;;;13.23;;
19402;SDS011;9837;48.888;8.998;2023-03-01T02:08:15;21.13;;;13.90;;
19402;SDS011;9837;48.888;8.998;2023-03-01T02:10:43;23.60;;;14.83;;
19402;SDS011;9837;48.888;8.998;2023-03-01T02:13:10;22.60;;;13.57;;
19402;SDS011;9837;48.888;8.998;2023-03-01T02:15:37;21.47;;;14.70;;
19402;SDS011;9837;48.888;8.998;2023-03-01T02:18:04;25.80;;;15.80;;
19402;SDS011;9837;48.888;8.998;2023-03-01T02:23:14;22.83;;;13.77;;
19402;SDS011;9837;48.888;8.998;2023-03-01T02:25:44;24.47;;;17.30;;
19402;SDS011;9837;48.888;8.998;2023-03-01T02:30:50;23.47;;;16.67;;
19402;SDS011;9837;48.888;8.998;2023-03-01T02:33:35;20.87;;;15.40;;
19402;SDS011;9837;48.888;8.998;2023-03-01T02:38:49;23.73;;;16.00;;
19402;SDS011;9837;48.888;8.998;2023-03-01T02:41:18;26.13;;;18.33;;
19402;SDS011;9837;48.888;8.998;2023-03-01T02:43:45;24.17;;;20.27;;
19402;SDS011;9837;48.888;8.998;2023-03-01T02:46:16;26.77;;;24.00;;
19402;SDS011;9837;48.888;8.998;2023-03-01T02:48:51;28.83;;;21.70;;
19402;SDS011;9837;48.888;8.998;2023-03-01T02:51:34;27.63;;;23.43;;
19402;SDS011;9837;48.888;8.998;2023-03-01T02:54:22;27.07;;;22.70;;
19402;SDS011;9837;48.888;8.998;2023-03-01T02:56:53;28.73;;;25.73;;
19402;SDS011;9837;48.888;8.998;2023-03-01T02:59:21;24.70;;;22.20;;
19402;SDS011;9837;48.888;8.998;2023-03-01T03:01:49;26.70;;;23.23;;
19402;SDS011;9837;48.888;8.998;2023-03-01T03:04:15;23.97;;;17.07;;
19402;SDS011;9837;48.888;8.998;2023-03-01T03:06:43;24.43;;;19.73;;
19402;SDS011;9837;48.888;8.998;2023-03-01T03:09:10;20.57;;;15.97;;
19402;SDS011;9837;48.888;8.998;2023-03-01T03:11:36;22.93;;;17.17;;
19402;SDS011;9837;48.888;8.998;2023-03-01T03:14:04;22.03;;;17.13;;
19402;SDS011;9837;48.888;8.998;2023-03-01T03:16:30;23.00;;;15.70;;
19402;SDS011;9837;48.888;8.998;2023-03-01T03:18:56;24.50;;;19.00;;
19402;SDS011;9837;48.888;8.998;2023-03-01T03:21:30;23.73;;;20.07;;
19402;SDS011;9837;48.888;8.998;2023-03-01T03:23:56;23.47;;;19.60;;
19402;SDS011;9837;48.888;8.998;2023-03-01T03:26:22;23.07;;;18.00;;
19402;SDS011;9837;48.888;8.998;2023-03-01T03:28:48;25.10;;;18.93;;
19402;SDS011;9837;48.888;8.998;2023-03-01T03:31:13;19.63;;;12.13;;
19402;SDS011;9837;48.888;8.998;2023-03-01T03:33:39;20.37;;;12.87;;
19402;SDS011;9837;48.888;8.998;2023-03-01T03:36:04;21.13;;;11.77;;
19402;SDS011;9837;48.888;8.998;2023-03-01T03:38:30;23.67;;;13.30;;
19402;SDS011;9837;48.888;8.998;2023-03-01T03:41:03;18.03;;;12.07;;
19402;SDS011;9837;48.888;8.998;2023-03-01T03:43:31;20.37;;;12.37;;
19402;SDS011;9837;48.888;8.998;2023-03-01T03:45:58;20.63;;;11.43;;
19402;SDS011;9837;48.888;8.998;2023-03-01T03:48:24;19.57;;;11.67;;
19402;SDS011;9837;48.888;8.998;2023-03-01T03:50:51;19.93;;;11.83;;
19402;SDS011;9837;48.888;8.998;2023-03-01T03:53:19;22.97;;;12.00;;
19402;SDS011;9837;48.888;8.998;2023-03-01T03:55:46;20.03;;;11.83;;
19402;SDS011;9837;48.888;8.998;2023-03-01T03:58:14;19.43;;;13.00;;
19402;SDS011;9837;48.888;8.998;2023-03-01T04:00:41;22.73;;;12.23;;
19402;SDS011;9837;48.888;8.998;2023-03-01T04:03:08;23.00;;;13.33;;
19402;SDS011;9837;48.888;8.998;2023-03-01T04:05:35;21.50;;;12.40;;
19402;SDS011;9837;48.888;8.998;2023-03-01T04:08:01;21.10;;;13.30;;
19402;SDS011;9837;48.888;8.998;2023-03-01T04:10:28;23.73;;;13.33;;
19402;SDS011;9837;48.888;8.998;2023-03-01T04:12:54;20.83;;;13.50;;
19402;SDS011;9837;48.888;8.998;2023-03-01T04:15:24;23.50;;;13.83;;
19402;SDS011;9837;48.888;8.998;2023-03-01T04:17:52;20.80;;;13.10;;
19402;SDS011;9837;48.888;8.998;2023-03-01T04:20:19;25.77;;;15.17;;
19402;SDS011;9837;48.888;8.998;2023-03-01T04:22:49;21.60;;;14.37;;
19402;SDS011;9837;48.888;8.998;2023-03-01T04:25:16;20.43;;;14.47;;
19402;SDS011;9837;48.888;8.998;2023-03-01T04:27:42;28.60;;;15.27;;
19402;SDS011;9837;48.888;8.998;2023-03-01T04:30:08;21.20;;;16.07;;
19402;SDS011;9837;48.888;8.998;2023-03-01T04:32:34;25.17;;;16.63;;
19402;SDS011;9837;48.888;8.998;2023-03-01T04:35:00;22.23;;;16.73;;
19402;SDS011;9837;48.888;8.998;2023-03-01T04:37:26;25.20;;;15.73;;
19402;SDS011;9837;48.888;8.998;2023-03-01T04:39:51;22.67;;;14.10;;
19402;SDS011;9837;48.888;8.998;2023-03-01T04:42:17;29.00;;;15.67;;
19402;SDS011;9837;48.888;8.998;2023-03-01T04:44:43;23.50;;;15.53;;
19402;SDS011;9837;48.888;8.998;2023-03-01T04:47:10;25.20;;;14.00;;
19402;SDS011;9837;48.888;8.998;2023-03-01T04:49:35;23.40;;;14.00;;
19402;SDS011;9837;48.888;8.998;2023-03-01T04:52:02;25.90;;;14.43;;
19402;SDS011;9837;48.888;8.998;2023-03-01T04:54:28;19.87;;;14.27;;
19402;SDS011;9837;48.888;8.998;2023-03-01T04:56:54;22.77;;;15.00;;
19402;SDS011;9837;48.888;8.998;2023-03-01T04:59:20;23.93;;;14.23;;
19402;SDS011;9837;48.888;8.998;2023-03-01T05:01:52;20.90;;;14.30;;
19402;SDS011;9837;48.888;8.998;2023-03-01T05:04:23;25.30;;;15.70;;
19402;SDS011;9837;48.888;8.998;2023-03-01T05:06:49;23.17;;;15.50;;
19402;SDS011;9837;48.888;8.998;2023-03-01T05:09:15;20.43;;;13.47;;
19402;SDS011;9837;48.888;8.998;2023-03-01T05:11:41;20.03;;;12.07;;
19402;SDS011;9837;48.888;8.998;2023-03-01T05:14:07;22.00;;;12.17;;
19402;SDS011;9837;48.888;8.998;2023-03-01T05:16:34;20.93;;;11.87;;
19402;SDS011;9837;48.888;8.998;2023-03-01T05:19:01;26.57;;;11.97;;
19402;SDS011;9837;48.888;8.998;2023-03-01T05:21:36;26.63;;;13.37;;
19402;SDS011;9837;48.888;8.998;2023-03-01T05:24:22;24.50;;;13.80;;
19402;SDS011;9837;48.888;8.998;2023-03-01T05:26:48;21.40;;;12.83;;
19402;SDS011;9837;48.888;8.998;2023-03-01T05:29:13;26.57;;;11.77;;
19402;SDS011;9837;48.888;8.998;2023-03-01T05:31:39;19.50;;;11.43;;
19402;SDS011;9837;48.888;8.998;2023-03-01T05:34:04;20.70;;;12.37;;
19402;SDS011;9837;48.888;8.998;2023-03-01T05:36:31;19.17;;;12.37;;
19402;SDS011;9837;48.888;8.998;2023-03-01T05:38:56;22.83;;;12.60;;
19402;SDS011;9837;48.888;8.998;2023-03-01T05:41:22;23.50;;;12.07;;
19402;SDS011;9837;48.888;8.998;2023-03-01T05:43:47;25.20;;;12.90;;
19402;SDS011;9837;48.888;8.998;2023-03-01T05:46:13;24.17;;;14.07;;
19402;SDS011;9837;48.888;8.998;2023-03-01T05:48:40;25.00;;;12.90;;
19402;SDS011;9837;48.888;8.998;2023-03-01T05:51:05;26.83;;;15.97;;
19402;SDS011;9837;48.888;8.998;2023-03-01T05:53:31;21.30;;;13.17;;
19402;SDS011;9837;48.888;8.998;2023-03-01T05:55:57;21.10;;;13.07;;
19402;SDS011;9837;48.888;8.998;2023-03-01T05:58:23;28.80;;;15.67;;
19402;SDS011;9837;48.888;8.998;2023-03-01T06:00:49;23.67;;;13.77;;
19402;SDS011;9837;48.888;8.998;2023-03-01T06:03:15;25.97;;;13.27;;
19402;SDS011;9837;48.888;8.998;2023-03-01T06:05:42;24.07;;;15.43;;
19402;SDS011;9837;48.888;8.998;2023-03-01T06:08:09;28.03;;;17.00;;
19402;SDS011;9837;48.888;8.998;2023-03-01T06:10:36;31.77;;;16.33;;
19402;SDS011;9837;48.888;8.998;2023-03-01T06:13:01;33.33;;;18.00;;
19402;SDS011;9837;48.888;8.998;2023-03-01T06:15:27;26.23;;;15.90;;
19402;SDS011;9837;48.888;8.998;2023-03-01T06:17:53;25.03;;;14.43;;
19402;SDS011;9837;48.888;8.998;2023-03-01T06:20:24;22.27;;;14.17;;
19402;SDS011;9837;48.888;8.998;2023-03-01T06:22:51;24.93;;;14.00;;
19402;SDS011;9837;48.888;8.998;2023-03-01T06:25:18;27.23;;;14.97;;
19402;SDS011;9837;48.888;8.998;2023-03-01T06:27:45;24.77;;;12.87;;
19402;SDS011;9837;48.888;8.998;2023-03-01T06:30:12;23.40;;;13.23;;
19402;SDS011;9837;48.888;8.998;2023-03-01T06:32:40;31.03;;;14.23;;
19402;SDS011;9837;48.888;8.998;2023-03-01T06:35:08;29.13;;;15.23;;
19402;SDS011;9837;48.888;8.998;2023-03-01T06:37:35;23.17;;;14.70;;
19402;SDS011;9837;48.888;8.998;2023-03-01T06:40:02;23.63;;;17.37;;
19402;SDS011;9837;48.888;8.998;2023-03-01T06:42:36;24.00;;;13.07;;
19402;SDS011;9837;48.888;8.998;2023-03-01T06:45:03;24.20;;;13.73;;
19402;SDS011;9837;48.888;8.998;2023-03-01T06:47:31;28.07;;;13.97;;
19402;SDS011;9837;48.888;8.998;2023-03-01T06:49:58;22.07;;;12.37;;
19402;SDS011;9837;48.888;8.998;2023-03-01T06:52:24;25.23;;;14.07;;
19402;SDS011;9837;48.888;8.998;2023-03-01T06:54:50;25.33;;;12.73;;
19402;SDS011;9837;48.888;8.998;2023-03-01T06:57:15;22.63;;;12.67;;
19402;SDS011;9837;48.888;8.998;2023-03-01T06:59:41;21.27;;;12.33;;
19402;SDS011;9837;48.888;8.998;2023-03-01T07:02:09;21.53;;;13.50;;
19402;SDS011;9837;48.888;8.998;2023-03-01T07:04:36;22.63;;;13.23;;
19402;SDS011;9837;48.888;8.998;2023-03-01T07:07:02;24.27;;;12.87;;
19402;SDS011;9837;48.888;8.998;2023-03-01T07:09:27;24.57;;;14.73;;
19402;SDS011;9837;48.888;8.998;2023-03-01T07:11:53;24.67;;;13.63;;
19402;SDS011;9837;48.888;8.998;2023-03-01T07:14:19;24.07;;;13.13;;
19402;SDS011;9837;48.888;8.998;2023-03-01T07:16:44;21.97;;;12.87;;
19402;SDS011;9837;48.888;8.998;2023-03-01T07:19:10;27.87;;;14.03;;
19402;SDS011;9837;48.888;8.998;2023-03-01T07:21:36;24.57;;;13.17;;
19402;SDS011;9837;48.888;8.998;2023-03-01T07:24:04;24.40;;;12.93;;
19402;SDS011;9837;48.888;8.998;2023-03-01T07:26:31;25.23;;;13.00;;
19402;SDS011;9837;48.888;8.998;2023-03-01T07:28:58;26.67;;;14.27;;
19402;SDS011;9837;48.888;8.998;2023-03-01T07:31:25;23.47;;;13.83;;
19402;SDS011;9837;48.888;8.998;2023-03-01T07:33:53;23.33;;;12.97;;
19402;SDS011;9837;48.888;8.998;2023-03-01T07:36:19;26.70;;;13.70;;
19402;SDS011;9837;48.888;8.998;2023-03-01T07:38:44;26.37;;;13.43;;
19402;SDS011;9837;48.888;8.998;2023-03-01T07:41:10;20.33;;;12.33;;
19402;SDS011;9837;48.888;8.998;2023-03-01T07:43:35;22.37;;;14.00;;
19402;SDS011;9837;48.888;8.998;2023-03-01T07:46:01;24.27;;;12.63;;
19402;SDS011;9837;48.888;8.998;2023-03-01T07:48:27;22.13;;;13.70;;
19402;SDS011;9837;48.888;8.998;2023-03-01T07:50:53;26.67;;;14.17;;
19402;SDS011;9837;48.888;8.998;2023-03-01T07:53:19;23.17;;;14.23;;
19402;SDS011;9837;48.888;8.998;2023-03-01T07:55:44;27.63;;;13.57;;
19402;SDS011;9837;48.888;8.998;2023-03-01T07:58:10;25.00;;;14.73;;
19402;SDS011;9837;48.888;8.998;2023-03-01T08:00:35;24.57;;;13.87;;
19402;SDS011;9837;48.888;8.998;2023-03-01T08:03:01;23.97;;;13.07;;
19402;SDS011;9837;48.888;8.998;2023-03-01T08:05:27;24.37;;;13.93;;
19402;SDS011;9837;48.888;8.998;2023-03-01T08:07:53;24.20;;;14.20;;
19402;SDS011;9837;48.888;8.998;2023-03-01T08:10:19;23.10;;;13.67;;
19402;SDS011;9837;48.888;8.998;2023-03-01T08:12:45;25.13;;;13.20;;
19402;SDS011;9837;48.888;8.998;2023-03-01T08:15:10;31.63;;;14.53;;
19402;SDS011;9837;48.888;8.998;2023-03-01T08:17:36;25.07;;;13.87;;
19402;SDS011;9837;48.888;8.998;2023-03-01T08:20:02;28.43;;;13.50;;
19402;SDS011;9837;48.888;8.998;2023-03-01T08:22:31;23.27;;;13.73;;
19402;SDS011;9837;48.888;8.998;2023-03-01T08:24:56;23.20;;;13.97;;
19402;SDS011;9837;48.888;8.998;2023-03-01T08:27:22;26.83;;;14.17;;
19402;SDS011;9837;48.888;8.998;2023-03-01T08:29:47;31.20;;;13.87;;
19402;SDS011;9837;48.888;8.998;2023-03-01T08:32:13;25.33;;;14.03;;
19402;SDS011;9837;48.888;8.998;2023-03-01T08:34:38;25.50;;;13.93;;
19402;SDS011;9837;48.888;8.998;2023-03-01T08:37:04;26.30;;;13.83;;
19402;SDS011;9837;48.888;8.998;2023-03-01T08:39:29;23.97;;;14.37;;
19402;SDS011;9837;48.888;8.998;2023-03-01T08:41:55;31.00;;;14.13;;
19402;SDS011;9837;48.888;8.998;2023-03-01T08:44:20;25.33;;;13.30;;
19402;SDS011;9837;48.888;8.998;2023-03-01T08:46:46;26.27;;;14.33;;
19402;SDS011;9837;48.888;8.998;2023-03-01T08:49:15;26.17;;;13.73;;
19402;SDS011;9837;48.888;8.998;2023-03-01T08:51:43;23.03;;;13.83;;
19402;SDS011;9837;48.888;8.998;2023-03-01T08:54:11;23.97;;;13.33;;
19402;SDS011;9837;48.888;8.998;2023-03-01T08:56:38;24.73;;;14.77;;
19402;SDS011;9837;48.888;8.998;2023-03-01T08:59:03;28.80;;;13.63;;
19402;SDS011;9837;48.888;8.998;2023-03-01T09:01:29;22.73;;;14.17;;
19402;SDS011;9837;48.888;8.998;2023-03-01T09:03:55;26.90;;;13.53;;
19402;SDS011;9837;48.888;8.998;2023-03-01T09:06:21;24.90;;;15.17;;
19402;SDS011;9837;48.888;8.998;2023-03-01T09:08:47;26.27;;;14.07;;
19402;SDS011;9837;48.888;8.998;2023-03-01T09:11:16;30.00;;;13.97;;
19402;SDS011;9837;48.888;8.998;2023-03-01T09:13:45;27.60;;;14.20;;
19402;SDS011;9837;48.888;8.998;2023-03-01T09:16:13;28.97;;;13.33;;
19402;SDS011;9837;48.888;8.998;2023-03-01T09:18:41;22.00;;;13.17;;
19402;SDS011;9837;48.888;8.998;2023-03-01T09:21:08;23.33;;;13.00;;
19402;SDS011;9837;48.888;8.998;2023-03-01T09:23:39;27.73;;;15.33;;
19402;SDS011;9837;48.888;8.998;2023-03-01T09:26:09;29.93;;;14.27;;
19402;SDS011;9837;48.888;8.998;2023-03-01T09:28:40;27.23;;;15.07;;
19402;SDS011;9837;48.888;8.998;2023-03-01T09:31:09;24.17;;;13.17;;
19402;SDS011;9837;48.888;8.998;2023-03-01T09:33:38;23.00;;;13.30;;
19402;SDS011;9837;48.888;8.998;2023-03-01T09:36:06;23.30;;;13.50;;
19402;SDS011;9837;48.888;8.998;2023-03-01T09:38:39;23.90;;;13.70;;
19402;SDS011;9837;48.888;8.998;2023-03-01T09:41:11;23.40;;;13.73;;
19402;SDS011;9837;48.888;8.998;2023-03-01T09:43:44;29.73;;;14.20;;
19402;SDS011;9837;48.888;8.998;2023-03-01T09:46:13;25.13;;;14.43;;
19402;SDS011;9837;48.888;8.998;2023-03-01T09:48:42;25.17;;;14.20;;
19402;SDS011;9837;48.888;8.998;2023-03-01T09:51:23;26.13;;;13.67;;
19402;SDS011;9837;48.888;8.998;2023-03-01T09:54:03;23.13;;;13.83;;
19402;SDS011;9837;48.888;8.998;2023-03-01T09:56:34;28.13;;;14.00;;
19402;SDS011;9837;48.888;8.998;2023-03-01T09:59:23;22.40;;;13.30;;
19402;SDS011;9837;48.888;8.998;2023-03-01T10:02:03;25.57;;;14.27;;
19402;SDS011;9837;48.888;8.998;2023-03-01T10:04:48;28.17;;;16.77;;
19402;SDS011;9837;48.888;8.998;2023-03-01T10:09:53;26.70;;;14.33;;
19402;SDS011;9837;48.888;8.998;2023-03-01T10:12:20;22.47;;;13.77;;
19402;SDS011;9837;48.888;8.998;2023-03-01T10:17:47;28.33;;;14.67;;
19402;SDS011;9837;48.888;8.998;2023-03-01T10:20:22;22.90;;;13.77;;
19402;SDS011;9837;48.888;8.998;2023-03-01T10:22:50;21.20;;;13.27;;
19402;SDS011;9837;48.888;8.998;2023-03-01T10:28:10;17.87;;;11.70;;
19402;SDS011;9837;48.888;8.998;2023-03-01T10:30:56;26.10;;;14.77;;
19402;SDS011;9837;48.888;8.998;2023-03-01T10:33:24;25.10;;;13.23;;
19402;SDS011;9837;48.888;8.998;2023-03-01T10:35:52;22.33;;;14.30;;
19402;SDS011;9837;48.888;8.998;2023-03-01T10:38:18;22.87;;;13.77;;
19402;SDS011;9837;48.888;8.998;2023-03-01T10:40:51;20.73;;;13.73;;
19402;SDS011;9837;48.888;8.998;2023-03-01T10:43:27;23.33;;;13.57;;
19402;SDS011;9837;48.888;8.998;2023-03-01T10:46:13;23.33;;;13.90;;
19402;SDS011;9837;48.888;8.998;2023-03-01T10:51:32;22.53;;;13.97;;
19402;SDS011;9837;48.888;8.998;2023-03-01T10:53:58;24.77;;;13.57;;
19402;SDS011;9837;48.888;8.998;2023-03-01T10:56:23;26.13;;;14.07;;
19402;SDS011;9837;48.888;8.998;2023-03-01T11:01:25;22.33;;;14.43;;
19402;SDS011;9837;48.888;8.998;2023-03-01T11:06:30;22.30;;;13.53;;
19402;SDS011;9837;48.888;8.998;2023-03-01T11:08:55;22.53;;;13.97;;
19402;SDS011;9837;48.888;8.998;2023-03-01T11:11:31;21.50;;;13.70;;
19402;SDS011;9837;48.888;8.998;2023-03-01T11:16:42;21.40;;;14.07;;
19402;SDS011;9837;48.888;8.998;2023-03-01T11:24:10;24.60;;;14.30;;
19402;SDS011;9837;48.888;8.998;2023-03-01T11:26:39;24.13;;;14.27;;
19402;SDS011;9837;48.888;8.998;2023-03-01T11:29:26;24.17;;;14.10;;
19402;SDS011;9837;48.888;8.998;2023-03-01T11:31:57;21.80;;;12.27;;
19402;SDS011;9837;48.888;8.998;2023-03-01T11:34:36;20.17;;;13.00;;
19402;SDS011;9837;48.888;8.998;2023-03-01T11:37:23;21.53;;;13.53;;
19402;SDS011;9837;48.888;8.998;2023-03-01T11:45:14;27.00;;;13.77;;
19402;SDS011;9837;48.888;8.998;2023-03-01T11:47:47;19.60;;;12.73;;
19402;SDS011;9837;48.888;8.998;2023-03-01T11:50:35;22.27;;;12.93;;
19402;SDS011;9837;48.888;8.998;2023-03-01T11:53:18;18.63;;;12.33;;
19402;SDS011;9837;48.888;8.998;2023-03-01T11:58:45;21.67;;;12.67;;
19402;SDS011;9837;48.888;8.998;2023-03-01T12:01:40;17.73;;;12.10;;
19402;SDS011;9837;48.888;8.998;2023-03-01T12:19:22;21.30;;;12.37;;
19402;SDS011;9837;48.888;8.998;2023-03-01T12:30:29;22.43;;;13.43;;
19402;SDS011;9837;48.888;8.998;2023-03-01T12:33:22;19.47;;;12.70;;
19402;SDS011;9837;48.888;8.998;2023-03-01T12:41:45;20.27;;;12.73;;
19402;SDS011;9837;48.888;8.998;2023-03-01T12:44:42;21.10;;;12.53;;
19402;SDS011;9837;48.888;8.998;2023-03-01T12:50:26;21.23;;;13.03;;
19402;SDS011;9837;48.888;8.998;2023-03-01T12:53:02;23.27;;;12.97;;
19402;SDS011;9837;48.888;8.998;2023-03-01T12:55:32;21.53;;;13.20;;
19402;SDS011;9837;48.888;8.998;2023-03-01T13:07:01;21.03;;;13.47;;
19402;SDS011;9837;48.888;8.998;2023-03-01T13:12:04;23.00;;;14.27;;
19402;SDS011;9837;48.888;8.998;2023-03-01T13:17:46;23.90;;;14.63;;
19402;SDS011;9837;48.888;8.998;2023-03-01T13:20:14;21.60;;;13.77;;
19402;SDS011;9837;48.888;8.998;2023-03-01T13:22:42;22.10;;;14.27;;
19402;SDS011;9837;48.888;8.998;2023-03-01T13:25:18;22.70;;;13.87;;
19402;SDS011;9837;48.888;8.998;2023-03-01T13:27:45;21.53;;;13.13;;
19402;SDS011;9837;48.888;8.998;2023-03-01T13:35:50;25.30;;;13.30;;
19402;SDS011;9837;48.888;8.998;2023-03-01T13:41:03;24.47;;;14.40;;
19402;SDS011;9837;48.888;8.998;2023-03-01T13:43:30;21.40;;;13.67;;
19402;SDS011;9837;48.888;8.998;2023-03-01T13:46:01;20.77;;;12.87;;
19402;SDS011;9837;48.888;8.998;2023-03-01T13:48:49;21.30;;;13.37;;
19402;SDS011;9837;48.888;8.998;2023-03-01T13:51:20;20.70;;;13.03;;
19402;SDS011;9837;48.888;8.998;2023-03-01T13:53:51;24.27;;;13.70;;
19402;SDS011;9837;48.888;8.998;2023-03-01T14:03:45;25.03;;;14.87;;
19402;SDS011;9837;48.888;8.998;2023-03-01T14:06:15;26.27;;;14.17;;
19402;SDS011;9837;48.888;8.998;2023-03-01T14:08:44;22.27;;;13.53;;
19402;SDS011;9837;48.888;8.998;2023-03-01T14:11:23;22.20;;;14.17;;
19402;SDS011;9837;48.888;8.998;2023-03-01T14:14:21;23.17;;;13.50;;
19402;SDS011;9837;48.888;8.998;2023-03-01T14:19:41;24.03;;;13.47;;
19402;SDS011;9837;48.888;8.998;2023-03-01T14:24:37;22.83;;;12.00;;
19402;SDS011;9837;48.888;8.998;2023-03-01T14:27:09;26.03;;;13.27;;
19402;SDS011;9837;48.888;8.998;2023-03-01T14:29:39;22.10;;;13.40;;
19402;SDS011;9837;48.888;8.998;2023-03-01T14:32:09;22.07;;;13.80;;
19402;SDS011;9837;48.888;8.998;2023-03-01T14:34:34;26.63;;;13.90;;
19402;SDS011;9837;48.888;8.998;2023-03-01T14:37:10;20.87;;;11.80;;
19402;SDS011;9837;48.888;8.998;2023-03-01T14:39:57;22.10;;;13.97;;
19402;SDS011;9837;48.888;8.998;2023-03-01T14:42:25;21.10;;;13.00;;
19402;SDS011;9837;48.888;8.998;2023-03-01T14:44:54;23.07;;;13.87;;
19402;SDS011;9837;48.888;8.998;2023-03-01T14:47:25;22.97;;;13.70;;
19402;SDS011;9837;48.888;8.998;2023-03-01T14:50:03;19.73;;;13.57;;
19402;SDS011;9837;48.888;8.998;2023-03-01T14:52:45;23.57;;;14.03;;
19402;SDS011;9837;48.888;8.998;2023-03-01T14:55:17;25.93;;;14.13;;
19402;SDS011;9837;48.888;8.998;2023-03-01T14:57:47;23.07;;;14.70;;
19402;SDS011;9837;48.888;8.998;2023-03-01T15:00:19;19.10;;;12.83;;
19402;SDS011;9837;48.888;8.998;2023-03-01T15:02:50;23.97;;;12.90;;
19402;SDS011;9837;48.888;8.998;2023-03-01T15:05:18;19.77;;;12.17;;
19402;SDS011;9837;48.888;8.998;2023-03-01T15:07:54;22.73;;;13.63;;
19402;SDS011;9837;48.888;8.998;2023-03-01T15:10:22;21.13;;;13.03;;
19402;SDS011;9837;48.888;8.998;2023-03-01T15:12:50;24.33;;;13.50;;
19402;SDS011;9837;48.888;8.998;2023-03-01T15:15:37;24.57;;;14.07;;
19402;SDS011;9837;48.888;8.998;2023-03-01T15:18:12;23.23;;;13.37;;
19402;SDS011;9837;48.888;8.998;2023-03-01T15:20:38;22.33;;;13.27;;
19402;SDS011;9837;48.888;8.998;2023-03-01T15:23:04;22.57;;;13.57;;
19402;SDS011;9837;48.888;8.998;2023-03-01T15:25:31;18.93;;;12.27;;
19402;SDS011;9837;48.888;8.998;2023-03-01T15:27:58;24.77;;;14.17;;
19402;SDS011;9837;48.888;8.998;2023-03-01T15:30:27;30.40;;;13.30;;
19402;SDS011;9837;48.888;8.998;2023-03-01T15:35:46;21.07;;;12.87;;
19402;SDS011;9837;48.888;8.998;2023-03-01T15:38:23;23.57;;;12.73;;
19402;SDS011;9837;48.888;8.998;2023-03-01T15:41:01;22.70;;;12.93;;
19402;SDS011;9837;48.888;8.998;2023-03-01T15:43:44;21.23;;;12.80;;
19402;SDS011;9837;48.888;8.998;2023-03-01T15:46:44;22.83;;;13.70;;
19402;SDS011;9837;48.888;8.998;2023-03-01T15:49:04;23.03;;;13.67;;
19402;SDS011;9837;48.888;8.998;2023-03-01T15:51:50;22.63;;;14.03;;
19402;SDS011;9837;48.888;8.998;2023-03-01T15:54:19;22.97;;;12.63;;
19402;SDS011;9837;48.888;8.998;2023-03-01T15:56:47;18.90;;;12.70;;
19402;SDS011;9837;48.888;8.998;2023-03-01T15:59:12;24.07;;;12.87;;
19402;SDS011;9837;48.888;8.998;2023-03-01T16:01:39;18.20;;;11.43;;
19402;SDS011;9837;48.888;8.998;2023-03-01T16:04:11;23.20;;;13.47;;
19402;SDS011;9837;48.888;8.998;2023-03-01T16:06:45;22.60;;;13.10;;
19402;SDS011;9837;48.888;8.998;2023-03-01T16:09:19;24.17;;;13.37;;
19402;SDS011;9837;48.888;8.998;2023-03-01T16:11:47;23.50;;;12.77;;
19402;SDS011;9837;48.888;8.998;2023-03-01T16:14:12;20.10;;;12.67;;
19402;SDS011;9837;48.888;8.998;2023-03-01T16:16:39;24.60;;;13.20;;
19402;SDS011;9837;48.888;8.998;2023-03-01T16:19:05;23.37;;;12.47;;
19402;SDS011;9837;48.888;8.998;2023-03-01T16:21:30;23.20;;;12.53;;
19402;SDS011;9837;48.888;8.998;2023-03-01T16:23:56;19.77;;;12.03;;
19402;SDS011;9837;48.888;8.998;2023-03-01T16:26:21;21.50;;;12.90;;
19402;SDS011;9837;48.888;8.998;2023-03-01T16:28:47;22.43;;;13.10;;
19402;SDS011;9837;48.888;8.998;2023-03-01T16:31:16;21.70;;;12.37;;
19402;SDS011;9837;48.888;8.998;2023-03-01T16:33:43;20.77;;;12.57;;
19402;SDS011;9837;48.888;8.998;2023-03-01T16:36:14;27.40;;;12.67;;